Accueil
METAR-TAF:

METAR-TAF

Aéroports :

Stockholm-Arlanda, Suède

Aéroport de Stockholm-Arlanda

latitude: 59-39N, longitude: 017-57E, altitude: 38 m

Observation

Le bulletin a été fait il y a 25 minutes, à 16:20 UTC
Vent 9 kt de nord
Température 16°C
Humidité 63%
Pression 1017 hPa
Visibilité 10 km ou plus
Quelques nuages à une hauteur de 2800 ft

METAR: ESSA 221620Z 36009KT 9999 FEW028 16/09 Q1017 NOSIG

Heure: 18:45 (16:45 UTC)

Prévision

Le bulletin a été fait il y a 5 heures et 15 minutes, à 11:30 UTC
Prévision valable du 22 à 12 UTC au 23 à 12 UTC
Vent 8 kt de nord
Visibilité 10 km ou plus
Nuages fragmentés à une hauteur de 3000 ft

TAF: ESSA 221130Z 2212/2312 35008KT 9999 BKN030

Observations et prévisions météorologiques de plus de 4000 aéroports (messages METAR et TAF).

Les stations disponibles sont représentées par des disques jaunes et rouges sur la carte.

Passer la souris dessus pour voir le nom de la station.

Cliquer dessus pour voir les observations et prévisions météorologiques.

Pour changer de carte: cliquez sur les boutons verts avec une croix noire pour zoomer, sur le bouton vert avec un tiret pour effectuer un zoom arrière, ou sur les flèches vertes pour les cartes adjacentes.


METAR-TAF: